»·PEaware :: N951TA KLAX-KSAN

N951TA :: KLAX-KSAN

FLIGHT INFORMATION

Flight Status: Arrived
Operator: Privately registered:
United States
More flights under this callsign
Pilot: John H. (7647)
Aircraft: CESSNA 172 SKYHAWK
(C172)
More flights by this aircraft type
Origin: KLAX Los Angeles Intl
United States
Destination: KSAN San Diego Intl-Lindbergh
United States
More flights between these airports :: More routes between these airports
Route:
File this flight plan on PilotEdge
Remarks: CAT-11
Altitude:
(Current/Filed)
5,500ft
Speed:
(Current/Filed)
120kts
Departed: 02-Aug-18 09:29 AM
Arrived: 02-Aug-18 10:29 AM
Distance/Time
Traveled:
95nm/1:00
Distance/Time
To Go:
Arrived

Flight Plot

Page will automatically refresh every two minutes.


Map Options




Map Legend


Flown Route
Filed Route
Departure Airport
Arrival Airport
Navaid (VOR, NDB)
Fix

Horizontal Profiles

Position Reports

Time Latitude Longitude Heading Altitude Ground
Speed
02-Aug-18 09:17 33.933884 -118.395128 92 108ft 0kts
02-Aug-18 09:18 33.933884 -118.395128 91 108ft 0kts
02-Aug-18 09:19 33.933884 -118.395128 91 108ft 0kts
02-Aug-18 09:20 33.933884 -118.395128 91 108ft 0kts
02-Aug-18 09:21 33.933884 -118.395128 91 108ft 0kts
02-Aug-18 09:22 33.933884 -118.395128 91 108ft 0kts
02-Aug-18 09:23 33.933884 -118.395128 91 108ft 0kts
02-Aug-18 09:24 33.934444 -118.393905 21 105ft 7kts
02-Aug-18 09:25 33.935227 -118.391576 82 104ft 14kts
02-Aug-18 09:26 33.935873 -118.385310 82 98ft 20kts
02-Aug-18 09:27 33.936561 -118.382776 350 98ft 0kts
02-Aug-18 09:28 33.936561 -118.382776 350 98ft 0kts
02-Aug-18 09:29 33.937250 -118.383820 257 98ft 3kts
02-Aug-18 09:30 33.934856 -118.405804 258 710ft 78kts
02-Aug-18 09:31 33.933861 -118.432501 268 1539ft 81kts
02-Aug-18 09:32 33.929123 -118.456965 210 2339ft 79kts
02-Aug-18 09:33 33.904042 -118.469383 201 2485ft 114kts
02-Aug-18 09:34 33.876843 -118.481310 201 2971ft 87kts
02-Aug-18 09:35 33.855237 -118.490128 181 3489ft 96kts
02-Aug-18 09:36 33.833837 -118.464957 131 3480ft 116kts
02-Aug-18 09:37 33.814145 -118.436233 130 3480ft 114kts
02-Aug-18 09:38 33.802862 -118.404344 95 3820ft 91kts
02-Aug-18 09:39 33.801173 -118.379027 94 4509ft 73kts
02-Aug-18 09:40 33.799154 -118.350260 95 4736ft 119kts
02-Aug-18 09:41 33.795469 -118.308729 103 4484ft 125kts
02-Aug-18 09:42 33.788225 -118.272646 103 4487ft 112kts
02-Aug-18 09:43 33.779756 -118.237381 107 4491ft 111kts
02-Aug-18 09:44 33.769882 -118.202601 111 4779ft 101kts
02-Aug-18 09:45 33.760263 -118.173484 111 5264ft 95kts
02-Aug-18 09:46 33.745472 -118.144708 129 5492ft 115kts
02-Aug-18 09:47 33.724223 -118.115669 131 5489ft 116kts
02-Aug-18 09:48 33.702719 -118.086963 131 5489ft 116kts
02-Aug-18 09:49 33.681047 -118.058109 131 5492ft 117kts
02-Aug-18 09:50 33.658861 -118.029799 133 5488ft 117kts
02-Aug-18 09:51 33.636477 -118.001635 133 5489ft 116kts
02-Aug-18 09:52 33.614434 -117.973796 132 5492ft 117kts
02-Aug-18 09:53 33.591994 -117.945118 133 5488ft 118kts
02-Aug-18 09:54 33.569371 -117.916551 133 5490ft 117kts
02-Aug-18 09:55 33.547121 -117.888604 132 5484ft 118kts
02-Aug-18 09:56 33.524740 -117.860531 133 5489ft 117kts
02-Aug-18 09:57 33.502327 -117.832435 133 5489ft 116kts
02-Aug-18 09:58 33.480043 -117.804531 133 5489ft 117kts
02-Aug-18 09:59 33.456792 -117.775493 133 5489ft 122kts
02-Aug-18 10:00 33.433664 -117.746624 133 5489ft 122kts
02-Aug-18 10:01 33.410783 -117.718059 133 5487ft 118kts
02-Aug-18 10:02 33.388333 -117.690080 132 5488ft 120kts
02-Aug-18 10:03 33.365371 -117.661328 135 5490ft 120kts
02-Aug-18 10:04 33.342319 -117.632663 135 5491ft 123kts
02-Aug-18 10:05 33.318782 -117.603401 135 5490ft 124kts
02-Aug-18 10:06 33.294869 -117.573690 135 5484ft 125kts
02-Aug-18 10:07 33.271451 -117.544587 136 5479ft 119kts
02-Aug-18 10:08 33.248700 -117.516306 135 5480ft 117kts
02-Aug-18 10:09 33.226384 -117.488554 135 5484ft 119kts
02-Aug-18 10:10 33.203463 -117.460126 135 5480ft 119kts
02-Aug-18 10:11 33.175342 -117.440293 157 5481ft 120kts
02-Aug-18 10:12 33.145050 -117.423954 158 5481ft 121kts
02-Aug-18 10:13 33.114093 -117.407006 157 5125ft 125kts
02-Aug-18 10:14 33.082613 -117.389704 156 4338ft 123kts
02-Aug-18 10:15 33.053099 -117.373438 156 3581ft 123kts
02-Aug-18 10:16 33.024550 -117.357695 156 3500ft 115kts
02-Aug-18 10:17 32.996211 -117.342110 157 3496ft 116kts
02-Aug-18 10:18 32.966759 -117.325968 155 3498ft 120kts
02-Aug-18 10:19 32.936717 -117.309443 154 3498ft 120kts
02-Aug-18 10:20 32.906511 -117.292160 152 3503ft 121kts
02-Aug-18 10:21 32.876915 -117.274421 153 3494ft 122kts
02-Aug-18 10:22 32.848322 -117.257215 152 3496ft 110kts
02-Aug-18 10:23 32.821475 -117.241076 153 3421ft 109kts
02-Aug-18 10:24 32.794489 -117.224914 153 2639ft 109kts
02-Aug-18 10:25 32.768656 -117.209397 156 1830ft 100kts
02-Aug-18 10:26 32.754640 -117.186717 102 1319ft 87kts
02-Aug-18 10:27 32.750073 -117.158917 105 830ft 87kts
02-Aug-18 10:28 32.732759 -117.155689 190 607ft 66kts
02-Aug-18 10:29 32.729430 -117.172659 284 182ft 64kts
02-Aug-18 10:30 32.732468 -117.184130 340 16ft 16kts
02-Aug-18 10:31 32.732975 -117.182546 101 16ft 18kts
02-Aug-18 10:32 32.732574 -117.179125 215 16ft 0kts
02-Aug-18 10:33 32.732574 -117.179124 215 16ft 0kts

Navigation Log

Ident Type
1. KLAX Airport
2. KSAN Airport